createdAt,value
2022-07-25T00:01:45.127Z,4.10
2022-07-25T00:04:14.848Z,3.93
2022-07-25T00:06:44.582Z,3.47
2022-07-25T00:09:12.561Z,3.77
2022-07-25T00:11:40.404Z,3.80
2022-07-25T00:14:08.854Z,4.03
2022-07-25T00:16:37.033Z,3.40
2022-07-25T00:19:04.940Z,4.00
2022-07-25T00:21:32.838Z,3.20
2022-07-25T00:24:03.276Z,3.33
2022-07-25T00:26:33.524Z,3.40
2022-07-25T00:29:05.057Z,2.90
2022-07-25T00:31:33.287Z,2.73
2022-07-25T00:34:01.215Z,2.60
2022-07-25T00:36:29.217Z,2.70
2022-07-25T00:38:56.939Z,3.00
2022-07-25T00:41:26.071Z,2.97
2022-07-25T00:43:53.783Z,2.90
2022-07-25T00:46:21.692Z,2.50
2022-07-25T00:48:52.043Z,2.67
2022-07-25T00:51:20.366Z,2.93
2022-07-25T00:53:48.807Z,2.77
2022-07-25T00:56:18.227Z,2.73
2022-07-25T00:58:47.983Z,2.50
2022-07-25T01:01:16.123Z,2.50
2022-07-25T01:03:44.441Z,2.50
2022-07-25T01:06:12.426Z,2.90
2022-07-25T01:08:40.420Z,2.80
2022-07-25T01:11:10.802Z,2.47
2022-07-25T01:13:39.451Z,2.27
2022-07-25T01:16:09.812Z,2.60
2022-07-25T01:18:38.626Z,2.40
2022-07-25T01:21:08.676Z,2.10
2022-07-25T01:23:36.779Z,2.23
2022-07-25T01:26:04.741Z,2.30
2022-07-25T01:28:32.839Z,2.63
2022-07-25T01:31:00.730Z,2.27
2022-07-25T01:33:28.833Z,2.20
2022-07-25T01:35:56.710Z,2.13
2022-07-25T01:38:26.044Z,2.30
2022-07-25T01:40:54.307Z,2.33
2022-07-25T01:43:22.148Z,2.53
2022-07-25T01:45:50.292Z,2.40
2022-07-25T01:48:17.967Z,2.30
2022-07-25T01:50:47.911Z,2.60
2022-07-25T01:53:17.161Z,2.10
2022-07-25T01:55:48.045Z,2.17
2022-07-25T01:58:15.997Z,2.40
2022-07-25T02:00:45.865Z,2.17
2022-07-25T02:03:31.872Z,2.47
2022-07-25T02:06:01.441Z,2.47
2022-07-25T02:08:29.784Z,2.63
2022-07-25T02:11:00.330Z,2.87
2022-07-25T02:13:28.722Z,1.80
2022-07-25T02:15:58.003Z,2.03
2022-07-25T02:18:25.782Z,2.33
2022-07-25T02:20:53.894Z,2.40
2022-07-25T02:23:21.826Z,2.00
2022-07-25T02:25:49.581Z,2.00
2022-07-25T02:28:19.209Z,2.00
2022-07-25T02:30:47.800Z,2.77
2022-07-25T02:33:15.924Z,1.93
2022-07-25T02:35:44.679Z,2.47
2022-07-25T02:38:19.718Z,1.70
2022-07-25T02:40:48.063Z,2.73
2022-07-25T02:43:15.946Z,2.33
2022-07-25T02:45:45.646Z,2.33
2022-07-25T02:48:13.751Z,2.50
2022-07-25T02:50:41.984Z,2.93
2022-07-25T02:53:09.689Z,2.40
2022-07-25T02:55:37.406Z,2.50
2022-07-25T02:58:05.374Z,2.37
2022-07-25T03:00:34.097Z,2.77
2022-07-25T03:03:03.628Z,2.80
2022-07-25T03:05:32.448Z,2.20
2022-07-25T03:08:02.068Z,2.47
2022-07-25T03:10:31.339Z,2.40
2022-07-25T03:12:59.104Z,2.50
2022-07-25T03:15:27.160Z,2.40
2022-07-25T03:17:55.163Z,3.07
2022-07-25T03:20:24.868Z,2.70
2022-07-25T03:22:52.822Z,3.00
2022-07-25T03:25:21.605Z,3.10
2022-07-25T03:27:50.750Z,2.93
2022-07-25T03:30:19.028Z,2.90
2022-07-25T03:32:47.074Z,2.93
2022-07-25T03:35:15.567Z,2.63
2022-07-25T03:37:46.076Z,3.47
2022-07-25T03:40:16.005Z,3.30
2022-07-25T03:42:44.034Z,2.90
2022-07-25T03:45:12.743Z,3.07
2022-07-25T03:47:40.549Z,3.07
2022-07-25T03:50:08.877Z,3.03
2022-07-25T03:52:38.769Z,3.20
2022-07-25T03:55:10.134Z,3.67
2022-07-25T03:57:38.140Z,3.17
2022-07-25T04:00:08.660Z,3.30
2022-07-25T04:02:37.982Z,3.40
2022-07-25T04:05:06.741Z,3.33
2022-07-25T04:07:35.217Z,3.00
2022-07-25T04:10:03.392Z,4.07
2022-07-25T04:12:32.851Z,2.73
2022-07-25T04:15:00.537Z,2.97
2022-07-25T04:17:28.494Z,2.63
2022-07-25T04:19:56.721Z,2.60
2022-07-25T04:22:24.605Z,2.70
2022-07-25T04:24:52.428Z,2.80
2022-07-25T04:27:20.365Z,2.90
2022-07-25T04:29:49.804Z,2.90
2022-07-25T04:32:23.342Z,2.93
2022-07-25T04:34:52.389Z,2.73
2022-07-25T04:37:20.248Z,2.50
2022-07-25T04:39:48.246Z,2.33
2022-07-25T04:42:15.986Z,2.73
2022-07-25T04:44:43.851Z,2.70
2022-07-25T04:47:13.472Z,3.10
2022-07-25T04:49:41.693Z,2.77
2022-07-25T04:52:09.968Z,2.23
2022-07-25T04:54:37.778Z,3.13
2022-07-25T04:57:05.909Z,3.03
2022-07-25T04:59:33.752Z,3.93
2022-07-25T05:02:02.837Z,5.10
2022-07-25T05:04:32.496Z,5.40
2022-07-25T05:07:03.051Z,4.27
2022-07-25T05:09:31.432Z,4.95
2022-07-25T05:11:59.467Z,5.72
2022-07-25T05:14:27.646Z,6.13
2022-07-25T05:16:56.545Z,9.18
2022-07-25T05:19:24.581Z,11.27
2022-07-25T05:21:54.018Z,12.10
2022-07-25T05:24:23.265Z,11.70
2022-07-25T05:26:51.229Z,12.20
2022-07-25T05:29:19.739Z,10.77
2022-07-25T05:31:48.282Z,9.15
2022-07-25T05:34:16.049Z,11.48
2022-07-25T05:36:47.169Z,11.00
2022-07-25T05:39:16.929Z,19.27
2022-07-25T05:41:44.764Z,30.25
2022-07-25T05:44:12.827Z,36.30
2022-07-25T05:46:40.828Z,29.73
2022-07-25T05:49:09.016Z,26.52
2022-07-25T05:51:37.673Z,25.70
2022-07-25T05:54:06.264Z,23.55
2022-07-25T05:56:36.133Z,26.73
2022-07-25T05:59:04.183Z,32.00
2022-07-25T06:01:32.288Z,40.67
2022-07-25T06:04:00.317Z,45.60
2022-07-25T06:06:28.259Z,49.08
2022-07-25T06:08:56.280Z,46.75
2022-07-25T06:11:27.301Z,54.33
2022-07-25T06:14:00.152Z,49.65
2022-07-25T06:16:28.069Z,47.72
2022-07-25T06:18:56.554Z,48.40
2022-07-25T06:21:24.519Z,45.85
2022-07-25T06:23:52.498Z,44.90
2022-07-25T06:26:20.412Z,50.60
2022-07-25T06:28:48.842Z,53.53
2022-07-25T06:31:18.705Z,61.83
2022-07-25T06:33:47.273Z,87.15
2022-07-25T06:36:15.191Z,81.55
2022-07-25T06:38:43.010Z,105.43
2022-07-25T06:41:15.380Z,116.63
2022-07-25T06:43:43.457Z,117.50
2022-07-25T06:46:11.484Z,103.55
2022-07-25T06:48:40.777Z,109.07
2022-07-25T06:51:08.957Z,111.05
2022-07-25T06:53:39.814Z,95.68
2022-07-25T06:56:07.829Z,82.85
2022-07-25T06:58:35.943Z,67.13
2022-07-25T07:01:03.985Z,62.95
2022-07-25T07:03:32.716Z,70.18
2022-07-25T07:06:02.271Z,67.63
2022-07-25T07:08:30.468Z,74.13
2022-07-25T07:10:58.408Z,88.13
2022-07-25T07:13:26.363Z,89.47
2022-07-25T07:15:54.211Z,92.35
2022-07-25T07:18:22.889Z,103.55
2022-07-25T07:20:51.819Z,109.32
2022-07-25T07:23:21.305Z,120.88
2022-07-25T07:25:49.526Z,120.72
2022-07-25T07:28:17.628Z,115.78
2022-07-25T07:31:15.268Z,100.07
2022-07-25T07:33:33.977Z,85.13
2022-07-25T07:36:02.070Z,86.93
2022-07-25T07:38:31.197Z,84.32
2022-07-25T07:40:59.143Z,75.20
2022-07-25T07:43:29.885Z,76.47
2022-07-25T07:46:01.386Z,73.28
2022-07-25T07:48:30.468Z,80.18
2022-07-25T07:50:58.506Z,78.75
2022-07-25T07:53:46.990Z,68.60
2022-07-25T07:56:16.556Z,67.75
2022-07-25T07:58:44.422Z,75.53
2022-07-25T08:01:12.652Z,72.70
2022-07-25T08:03:40.514Z,67.35
2022-07-25T08:06:08.638Z,52.10
2022-07-25T08:08:36.320Z,54.22
2022-07-25T08:11:04.113Z,56.10
2022-07-25T08:13:35.254Z,61.67
2022-07-25T08:16:04.524Z,82.13
2022-07-25T08:18:34.236Z,65.40
2022-07-25T08:21:04.228Z,68.57
2022-07-25T08:23:33.675Z,61.35
2022-07-25T08:26:02.423Z,61.80
2022-07-25T08:28:30.514Z,59.83
2022-07-25T08:31:00.314Z,58.03
2022-07-25T08:33:28.600Z,68.95
2022-07-25T08:35:58.994Z,73.68
2022-07-25T08:38:29.680Z,73.82
2022-07-25T08:41:00.617Z,92.32
2022-07-25T08:43:33.013Z,101.20
2022-07-25T08:46:03.735Z,91.10
2022-07-25T08:48:31.667Z,89.30
2022-07-25T08:51:01.317Z,92.70
2022-07-25T08:53:33.330Z,94.28
2022-07-25T08:56:05.394Z,103.95
2022-07-25T08:58:38.345Z,111.15
2022-07-25T09:01:08.375Z,110.55
2022-07-25T09:03:42.718Z,124.80
2022-07-25T09:06:19.417Z,116.43
2022-07-25T09:08:54.862Z,109.60
2022-07-25T09:11:32.891Z,125.18
2022-07-25T09:14:08.314Z,119.35
2022-07-25T09:16:44.729Z,114.80
2022-07-25T09:19:16.843Z,111.15
2022-07-25T09:21:46.550Z,141.85
2022-07-25T09:24:17.884Z,100.60
2022-07-25T09:26:51.224Z,95.38
2022-07-25T09:29:21.860Z,95.55
2022-07-25T09:31:52.662Z,102.70
2022-07-25T09:34:37.895Z,113.15
2022-07-25T09:37:07.935Z,117.22
2022-07-25T09:39:46.436Z,121.88
2022-07-25T09:42:19.843Z,136.13
2022-07-25T09:45:03.080Z,116.72
2022-07-25T09:47:33.580Z,115.20
2022-07-25T09:50:04.280Z,120.93
2022-07-25T09:52:33.913Z,124.53
2022-07-25T09:55:04.069Z,114.28
2022-07-25T09:57:34.862Z,111.65
2022-07-25T10:00:03.259Z,125.32
2022-07-25T10:02:44.815Z,126.30
2022-07-25T10:05:16.627Z,121.00
2022-07-25T10:07:48.751Z,126.90
2022-07-25T10:10:26.526Z,136.40
2022-07-25T10:13:11.448Z,122.13
2022-07-25T10:15:47.662Z,133.50
2022-07-25T10:18:21.228Z,133.35
2022-07-25T10:20:50.643Z,126.32
2022-07-25T10:23:24.335Z,125.45
2022-07-25T10:26:03.688Z,123.57
2022-07-25T10:28:40.532Z,132.13
2022-07-25T10:31:24.345Z,129.77
2022-07-25T10:33:56.522Z,138.10
2022-07-25T10:36:25.835Z,148.90
2022-07-25T10:38:58.040Z,130.50
2022-07-25T10:41:30.089Z,127.05
2022-07-25T10:44:02.779Z,128.20
2022-07-25T10:46:32.800Z,133.18
2022-07-25T10:49:04.284Z,137.20
2022-07-25T10:51:39.455Z,135.57
2022-07-25T10:54:19.508Z,135.40
2022-07-25T10:56:56.361Z,127.50
2022-07-25T10:59:30.170Z,132.23
2022-07-25T11:01:58.777Z,137.15
2022-07-25T11:04:28.471Z,140.20
2022-07-25T11:06:57.115Z,130.68
2022-07-25T11:09:27.867Z,130.10
2022-07-25T11:11:57.958Z,140.00
2022-07-25T11:14:31.261Z,144.02
2022-07-25T11:17:10.742Z,132.43
2022-07-25T11:19:42.965Z,140.05
2022-07-25T11:22:10.921Z,130.75
2022-07-25T11:24:40.969Z,131.27
2022-07-25T11:27:13.249Z,137.85
2022-07-25T11:29:42.146Z,133.48
2022-07-25T11:32:13.291Z,137.88
2022-07-25T11:34:44.835Z,148.77
2022-07-25T11:37:15.657Z,133.98
2022-07-25T11:39:47.149Z,144.43
2022-07-25T11:42:17.425Z,133.85
2022-07-25T11:44:48.097Z,138.50
2022-07-25T11:47:28.346Z,130.88
2022-07-25T11:50:00.899Z,135.40
2022-07-25T11:52:31.154Z,123.47
2022-07-25T11:55:01.414Z,131.73
2022-07-25T11:57:31.285Z,131.65
2022-07-25T12:00:01.288Z,135.80
2022-07-25T12:02:31.666Z,122.93
2022-07-25T12:05:02.949Z,124.15
2022-07-25T12:07:41.880Z,122.40
2022-07-25T12:10:12.712Z,127.85
2022-07-25T12:12:49.973Z,134.10
2022-07-25T12:15:23.241Z,120.82
2022-07-25T12:17:52.175Z,125.10
2022-07-25T12:20:24.309Z,116.47
2022-07-25T12:22:54.530Z,124.28
2022-07-25T12:25:26.404Z,114.03
2022-07-25T12:27:59.092Z,121.88
2022-07-25T12:30:27.915Z,126.43
2022-07-25T12:32:56.243Z,123.78
2022-07-25T12:35:26.609Z,141.98
2022-07-25T12:37:55.122Z,153.77
2022-07-25T12:40:23.995Z,161.18
2022-07-25T12:42:52.148Z,154.02
2022-07-25T12:45:20.143Z,153.38
2022-07-25T12:47:49.771Z,150.60
2022-07-25T12:50:19.270Z,151.70
2022-07-25T12:52:49.150Z,152.68
2022-07-25T12:55:19.502Z,164.13
2022-07-25T12:57:48.049Z,151.43
2022-07-25T13:00:18.809Z,181.55
2022-07-25T13:02:46.954Z,470.60
2022-07-25T13:05:15.245Z,432.60
2022-07-25T13:07:43.077Z,458.40
2022-07-25T13:10:12.846Z,456.00
2022-07-25T13:12:40.589Z,451.50
2022-07-25T13:15:09.895Z,482.58
2022-07-25T13:17:37.967Z,449.45
2022-07-25T13:20:06.636Z,454.27
2022-07-25T13:22:34.633Z,453.75
2022-07-25T13:25:02.536Z,445.30
2022-07-25T13:27:31.818Z,469.55
2022-07-25T13:29:59.654Z,476.90
2022-07-25T13:32:28.543Z,468.85
2022-07-25T13:34:56.736Z,511.23
2022-07-25T13:37:24.547Z,477.95
2022-07-25T13:39:52.608Z,499.70
2022-07-25T13:42:20.535Z,511.73
2022-07-25T13:44:49.923Z,498.67
2022-07-25T13:47:17.916Z,501.40
2022-07-25T13:49:45.801Z,521.13
2022-07-25T13:52:13.717Z,526.30
2022-07-25T13:54:41.685Z,538.03
2022-07-25T13:57:10.743Z,521.50
2022-07-25T13:59:38.542Z,537.33
2022-07-25T14:02:07.946Z,562.45
2022-07-25T14:04:36.188Z,553.22
2022-07-25T14:07:04.103Z,564.40
2022-07-25T14:09:31.909Z,513.20
2022-07-25T14:12:00.114Z,516.92
2022-07-25T14:14:28.110Z,503.77
2022-07-25T14:16:56.270Z,512.97
2022-07-25T14:19:25.915Z,513.85
2022-07-25T14:21:53.745Z,521.63
2022-07-25T14:24:21.725Z,502.80
2022-07-25T14:26:50.309Z,519.75
2022-07-25T14:29:18.301Z,511.30
2022-07-25T14:31:46.347Z,528.95
2022-07-25T14:34:15.655Z,529.63
2022-07-25T14:36:47.797Z,518.10
2022-07-25T14:39:17.074Z,526.80
2022-07-25T14:41:45.076Z,529.13
2022-07-25T14:44:13.595Z,498.27
2022-07-25T14:46:43.031Z,510.63
2022-07-25T14:49:13.455Z,506.70
2022-07-25T14:51:45.366Z,475.08
2022-07-25T14:54:13.145Z,493.42
2022-07-25T14:56:41.354Z,484.98
2022-07-25T14:59:09.795Z,502.55
2022-07-25T15:01:38.884Z,510.63
2022-07-25T15:04:07.203Z,521.70
2022-07-25T15:06:35.341Z,532.33
2022-07-25T15:09:05.531Z,522.38
2022-07-25T15:11:34.579Z,524.55
2022-07-25T15:14:02.491Z,537.47
2022-07-25T15:16:31.225Z,524.78
2022-07-25T15:19:15.943Z,517.13
2022-07-25T15:21:44.835Z,514.58
2022-07-25T15:24:15.612Z,521.17
2022-07-25T15:26:44.142Z,512.97
2022-07-25T15:29:13.562Z,520.03
2022-07-25T15:31:41.416Z,518.30
2022-07-25T15:34:09.245Z,524.40
2022-07-25T15:36:37.216Z,516.08
2022-07-25T18:48:42.044Z,4.47
2022-07-25T18:51:09.925Z,3.95
2022-07-25T18:53:38.332Z,3.40
2022-07-25T18:56:07.600Z,2.90
2022-07-25T18:58:36.760Z,4.32
2022-07-25T19:01:05.230Z,3.70
2022-07-25T19:03:34.948Z,3.72
2022-07-25T19:06:04.555Z,3.97
2022-07-25T19:08:34.224Z,3.95
2022-07-25T19:11:02.090Z,3.28
2022-07-25T19:13:48.832Z,2.88
2022-07-25T19:16:18.133Z,3.20
2022-07-25T19:18:46.638Z,3.85
2022-07-25T19:21:16.822Z,3.58
2022-07-25T19:23:50.436Z,2.92
2022-07-25T19:26:19.715Z,3.45
2022-07-25T19:28:48.334Z,3.55
2022-07-25T19:31:16.671Z,3.40
2022-07-25T19:33:45.971Z,3.53
2022-07-25T19:36:15.498Z,3.75
2022-07-25T19:38:43.810Z,2.85
2022-07-25T19:41:12.102Z,3.03
2022-07-25T19:43:40.010Z,3.65
2022-07-25T19:46:07.809Z,3.70
2022-07-25T19:48:35.623Z,4.43
2022-07-25T19:51:03.347Z,3.97
2022-07-25T19:53:33.114Z,2.97
2022-07-25T19:56:01.380Z,4.10
2022-07-25T19:58:29.420Z,3.65
2022-07-25T20:00:57.328Z,4.00
2022-07-25T20:03:25.387Z,4.28
2022-07-25T20:05:53.712Z,4.45
2022-07-25T20:08:21.626Z,2.92
2022-07-25T20:10:50.823Z,4.15
2022-07-25T20:13:18.771Z,4.07
2022-07-25T20:15:47.101Z,3.78
2022-07-25T20:18:19.804Z,3.20
2022-07-25T20:20:48.252Z,5.75
2022-07-25T20:23:16.775Z,3.92
2022-07-25T20:25:45.118Z,3.10
2022-07-25T20:28:14.304Z,3.03
2022-07-25T20:30:42.714Z,4.35
2022-07-25T20:33:10.860Z,3.90
2022-07-25T20:35:39.428Z,3.72
2022-07-25T20:38:09.967Z,5.25
2022-07-25T20:40:38.852Z,6.87
2022-07-25T20:43:09.515Z,3.67
2022-07-25T20:45:40.295Z,4.27
2022-07-25T20:48:08.414Z,6.60
2022-07-25T20:50:38.452Z,47.57
2022-07-25T20:53:07.089Z,7.37
2022-07-25T20:55:35.590Z,10.88
2022-07-25T20:58:04.550Z,8.23
2022-07-25T21:00:32.977Z,37.40
2022-07-25T21:03:02.574Z,11.10
2022-07-25T21:05:30.667Z,69.93
2022-07-25T21:07:59.061Z,46.63
2022-07-25T21:10:27.214Z,73.03
2022-07-25T21:12:56.719Z,181.27
2022-07-25T21:15:25.132Z,11.17
2022-07-25T21:17:53.255Z,155.90
2022-07-25T21:20:23.085Z,27.10
2022-07-25T21:22:51.635Z,67.53
2022-07-25T21:25:19.861Z,219.90
2022-07-25T21:27:47.846Z,80.73
2022-07-25T21:30:15.966Z,21.37
2022-07-25T21:32:45.049Z,48.47
2022-07-25T21:35:13.621Z,55.60
2022-07-25T21:37:43.550Z,59.33
2022-07-25T21:40:11.869Z,253.43
2022-07-25T21:42:40.146Z,91.97
2022-07-25T21:45:09.151Z,54.10
2022-07-25T21:47:36.897Z,218.53
2022-07-25T21:50:24.342Z,148.40
2022-07-25T21:52:54.947Z,24.23
2022-07-25T21:55:23.429Z,58.10
2022-07-25T21:57:52.433Z,53.07
2022-07-25T22:00:21.981Z,13.97
2022-07-25T22:02:49.928Z,92.07
2022-07-25T22:05:18.663Z,34.53
2022-07-25T22:07:48.852Z,65.60
2022-07-25T22:10:20.666Z,15.87
2022-07-25T22:12:49.579Z,11.87
2022-07-25T22:15:18.167Z,59.03
2022-07-25T22:17:49.741Z,33.33
2022-07-25T22:20:19.654Z,36.37
2022-07-25T22:22:48.476Z,223.23
2022-07-25T22:25:18.892Z,3.23
2022-07-25T22:27:46.622Z,113.60
2022-07-25T22:30:19.204Z,257.77
2022-07-25T22:32:48.172Z,297.93
2022-07-25T22:35:16.585Z,13.27
2022-07-25T22:37:45.078Z,20.73
2022-07-25T22:40:16.541Z,8.23
2022-07-25T22:42:45.818Z,18.60
2022-07-25T22:45:13.763Z,2.93
2022-07-25T22:47:41.872Z,3.03
2022-07-25T22:50:11.560Z,2.40
2022-07-25T22:52:39.566Z,3.03
2022-07-25T22:55:10.165Z,2.70
2022-07-25T22:57:38.561Z,17.97
2022-07-25T23:00:12.403Z,74.20
2022-07-25T23:02:40.499Z,10.70
2022-07-25T23:05:09.437Z,3.10
2022-07-25T23:07:37.470Z,4.03
2022-07-25T23:10:06.654Z,22.93
2022-07-25T23:12:34.380Z,7.60
2022-07-25T23:15:02.247Z,11.77
2022-07-25T23:17:31.702Z,21.27
2022-07-25T23:19:59.793Z,6.87
2022-07-25T23:22:29.038Z,3.17
2022-07-25T23:24:59.475Z,2.93
2022-07-25T23:27:28.329Z,4.07
2022-07-25T23:30:01.448Z,4.93
2022-07-25T23:32:29.267Z,3.03
2022-07-25T23:34:58.512Z,3.33
2022-07-25T23:37:26.945Z,11.87
2022-07-25T23:39:54.757Z,16.97
2022-07-25T23:42:22.444Z,3.43
2022-07-25T23:44:50.395Z,5.43
2022-07-25T23:47:23.894Z,3.17
2022-07-25T23:49:54.874Z,5.37
2022-07-25T23:52:24.007Z,10.97
2022-07-25T23:54:51.914Z,2.90
2022-07-25T23:57:19.789Z,3.23
2022-07-25T23:59:47.579Z,2.67
